Time;durP1;ratioP1;P1;durP2;ratioP2;P2;SDS_P1;SDS_P2;PMS_P1;PMS_P2;Temp;Humidity;BMP_temperature;BMP_pressure;BME280_temperature;BME280_humidity;BME280_pressure;Samples;Min_cycle;Max_cycle;Signal;HPM_P1;HPM_P2
2023/05/15 00:01:45;;;;;;;0.50;0.50;;;;;;;12.26;95.04;98825.41;5134366;28;20831;-63
2023/05/15 00:04:13;;;;;;;3.33;0.70;;;;;;;12.36;95.33;98842.22;5134668;28;20070;-63
2023/05/15 00:06:42;;;;;;;0.55;0.55;;;;;;;12.37;95.24;98844.75;5134243;28;20576;-63
2023/05/15 00:09:12;;;;;;;0.73;0.73;;;;;;;12.37;95.43;98838.81;5134248;28;20046;-63
2023/05/15 00:11:40;;;;;;;0.70;0.70;;;;;;;12.40;95.53;98843.84;5116107;28;20135;-63
2023/05/15 00:14:09;;;;;;;0.77;0.63;;;;;;;12.38;95.49;98840.50;5134228;28;20047;-63
2023/05/15 00:16:40;;;;;;;0.67;0.67;;;;;;;12.40;95.66;98843.84;5134296;28;20046;-63
2023/05/15 00:19:09;;;;;;;0.70;0.70;;;;;;;12.42;95.96;98842.09;5134265;28;20039;-63
2023/05/15 00:21:38;;;;;;;0.40;0.40;;;;;;;12.48;95.92;98836.84;5134170;28;20043;-63
2023/05/15 00:24:07;;;;;;;0.40;0.40;;;;;;;12.53;96.06;98845.25;5134520;28;20059;-63
2023/05/15 00:26:36;;;;;;;0.63;0.57;;;;;;;12.57;96.06;98852.03;5134167;28;20303;-64
2023/05/15 00:29:05;;;;;;;0.50;0.50;;;;;;;12.57;96.02;98845.16;5134363;27;20456;-63
2023/05/15 00:31:33;;;;;;;0.50;0.50;;;;;;;12.40;95.97;98814.00;5137989;27;20549;-63
2023/05/15 00:34:04;;;;;;;0.40;0.40;;;;;;;12.58;96.03;98844.28;5138206;27;20440;-64
2023/05/15 00:36:33;;;;;;;0.50;0.50;;;;;;;12.60;96.12;98846.81;5119810;27;20438;-64
2023/05/15 00:39:01;;;;;;;0.60;0.60;;;;;;;12.65;96.07;98852.66;5119844;27;20070;-64
2023/05/15 00:41:32;;;;;;;0.40;0.40;;;;;;;12.59;95.98;98845.13;5137707;27;20043;-64
2023/05/15 00:44:02;;;;;;;0.40;0.40;;;;;;;12.62;95.87;98850.19;5137825;27;20440;-64
2023/05/15 00:46:32;;;;;;;0.30;0.30;;;;;;;12.64;96.05;98848.44;5137734;27;20050;-64
2023/05/15 00:49:05;;;;;;;0.52;0.40;;;;;;;12.65;95.81;98850.09;5137664;27;20047;-64
2023/05/15 00:51:35;;;;;;;0.65;0.57;;;;;;;12.60;95.82;98841.69;5137851;27;20443;-64
2023/05/15 00:54:04;;;;;;;0.60;0.60;;;;;;;12.64;95.77;98851.00;5137795;27;20046;-63
2023/05/15 00:56:34;;;;;;;0.40;0.40;;;;;;;12.66;95.71;98851.81;5137755;27;20485;-63
2023/05/15 00:59:04;;;;;;;0.50;0.50;;;;;;;12.63;95.84;98846.75;5137633;27;20516;-63
2023/05/15 01:01:34;;;;;;;0.50;0.50;;;;;;;12.68;95.71;98844.94;5137444;27;20047;-63
2023/05/15 01:04:05;;;;;;;0.50;0.50;;;;;;;12.69;95.96;98850.00;5137347;27;20046;-63
2023/05/15 01:06:34;;;;;;;0.70;0.68;;;;;;;12.70;95.87;98849.13;5137340;27;20047;-63
2023/05/15 01:09:04;;;;;;;0.80;0.80;;;;;;;12.67;95.63;98840.66;5118959;27;20066;-63
2023/05/15 01:11:37;;;;;;;0.40;0.40;;;;;;;12.60;95.63;98821.22;5137443;27;20047;-63
2023/05/15 01:14:08;;;;;;;0.75;0.75;;;;;;;12.65;95.94;98824.50;5137217;27;20051;-63
2023/05/15 01:16:37;;;;;;;2.25;1.08;;;;;;;12.68;95.81;98832.13;5119209;27;20046;-63
2023/05/15 01:19:08;;;;;;;0.50;0.50;;;;;;;12.66;95.84;98826.22;5136993;27;20035;-63
2023/05/15 01:22:05;;;;;;;0.50;0.50;;;;;;;12.66;95.77;98826.22;5119060;27;20112;-63
2023/05/15 01:24:58;;;;;;;1.80;1.23;;;;;;;12.64;95.86;98823.66;5137237;27;20431;-63
2023/05/15 01:27:34;;;;;;;1.70;1.35;;;;;;;12.68;95.86;98819.31;5136925;27;20105;-63
2023/05/15 01:30:12;;;;;;;0.50;0.50;;;;;;;12.66;96.00;98821.09;5136866;27;20055;-63
2023/05/15 01:32:47;;;;;;;0.65;0.65;;;;;;;12.67;95.89;98822.75;5136909;27;20050;-63
2023/05/15 01:35:22;;;;;;;0.82;0.80;;;;;;;12.70;95.95;98820.13;5137652;27;20378;-63
2023/05/15 01:37:59;;;;;;;0.90;0.47;;;;;;;12.70;95.47;98815.00;5118231;27;20419;-63
2023/05/15 01:40:30;;;;;;;1.15;1.05;;;;;;;12.69;95.91;98805.66;5118103;27;20046;-63
2023/05/15 01:43:08;;;;;;;0.40;0.40;;;;;;;12.69;95.70;98801.34;5136910;27;20115;-63
2023/05/15 01:45:37;;;;;;;0.57;0.57;;;;;;;12.71;95.84;98809.03;5118468;27;20450;-64
2023/05/15 01:48:08;;;;;;;0.95;0.95;;;;;;;12.73;95.80;98803.00;5136803;27;20481;-64
2023/05/15 01:50:40;;;;;;;0.68;0.68;;;;;;;12.75;95.91;98797.81;5118287;27;20461;-63
2023/05/15 01:53:10;;;;;;;0.90;0.88;;;;;;;12.75;95.86;98785.88;5136374;27;20047;-64
2023/05/15 01:55:40;;;;;;;0.40;0.40;;;;;;;12.78;95.83;98790.06;5136735;27;20047;-64
2023/05/15 01:58:10;;;;;;;;;;;;;;;12.77;96.07;98788.38;5118391;27;20126;-64
2023/05/15 02:00:39;;;;;;;0.40;0.40;;;;;;;12.74;95.99;98779.06;5136891;27;19968;-63
2023/05/15 02:03:09;;;;;;;0.63;0.63;;;;;;;12.72;95.95;98774.84;5118431;27;20130;-63
2023/05/15 02:05:42;;;;;;;1.95;1.08;;;;;;;12.70;96.10;98766.38;5136197;27;20104;-63
2023/05/15 02:08:16;;;;;;;2.92;1.50;;;;;;;12.74;96.01;98783.34;5136516;27;20121;-63
2023/05/15 02:10:46;;;;;;;0.40;0.40;;;;;;;12.72;95.84;98774.84;5118052;27;20027;-63
2023/05/15 02:13:17;;;;;;;0.50;0.50;;;;;;;12.74;96.11;98773.13;5136245;27;20519;-63
2023/05/15 02:15:46;;;;;;;0.40;0.40;;;;;;;12.53;95.78;98737.75;5135894;27;20500;-63
2023/05/15 02:18:14;;;;;;;0.40;0.40;;;;;;;12.74;95.87;98773.13;5117549;27;20050;-63
2023/05/15 02:20:43;;;;;;;0.40;0.40;;;;;;;12.74;96.04;98768.00;5117645;27;20496;-64
2023/05/15 02:23:12;;;;;;;0.70;0.70;;;;;;;12.80;96.15;98775.50;5117450;27;20130;-63
2023/05/15 02:26:10;;;;;;;0.68;0.68;;;;;;;12.79;96.07;98776.38;5117791;27;20134;-63
2023/05/15 02:28:48;;;;;;;1.15;1.05;;;;;;;12.80;96.01;98783.19;5117580;27;20066;-64
2023/05/15 02:31:28;;;;;;;0.40;0.40;;;;;;;12.82;96.02;98786.56;5135692;27;20047;-64
2023/05/15 02:34:09;;;;;;;0.60;0.60;;;;;;;12.82;96.02;98785.72;5136297;27;20054;-64
2023/05/15 02:36:44;;;;;;;0.38;0.38;;;;;;;12.83;95.78;98788.25;5117288;27;20109;-64
2023/05/15 02:39:16;;;;;;;0.50;0.50;;;;;;;12.82;95.83;98789.13;5135459;27;20054;-63
2023/05/15 02:41:46;;;;;;;0.40;0.40;;;;;;;12.82;95.73;98784.00;5135575;27;20050;-63
2023/05/15 02:44:19;;;;;;;3.30;0.73;;;;;;;12.84;95.94;98778.84;5135414;27;20047;-63
2023/05/15 02:46:49;;;;;;;0.52;0.52;;;;;;;12.84;95.78;98782.22;5135358;27;20081;-63
2023/05/15 02:49:25;;;;;;;0.30;0.30;;;;;;;12.83;95.73;98778.00;5135400;27;20039;-63
2023/05/15 02:51:54;;;;;;;0.50;0.50;;;;;;;12.82;95.68;98772.91;5135501;27;20388;-63
2023/05/15 02:54:23;;;;;;;0.75;0.75;;;;;;;12.83;95.79;98767.75;5134814;27;20039;-63
2023/05/15 02:56:51;;;;;;;1.35;1.20;;;;;;;12.82;95.52;98775.47;5135119;27;20071;-63
2023/05/15 02:59:22;;;;;;;1.17;1.13;;;;;;;12.83;95.88;98777.16;5116797;27;20048;-62
2023/05/15 03:01:51;;;;;;;0.50;0.50;;;;;;;12.84;95.57;98778.84;5135193;27;20043;-63
2023/05/15 03:04:21;;;;;;;0.50;0.50;;;;;;;12.86;95.58;98782.22;5116856;27;20039;-63
2023/05/15 03:06:55;;;;;;;0.40;0.40;;;;;;;12.84;95.57;98782.22;5117574;27;20043;-63
2023/05/15 03:09:24;;;;;;;6.53;1.70;;;;;;;12.83;95.68;98778.00;5135273;27;20102;-63
2023/05/15 03:11:53;;;;;;;0.50;0.50;;;;;;;12.85;95.82;98781.38;5134951;27;20295;-63
2023/05/15 03:14:23;;;;;;;1.17;0.85;;;;;;;12.84;95.74;98774.56;5134917;27;20050;-62
2023/05/15 03:16:52;;;;;;;0.60;0.60;;;;;;;12.85;95.74;98781.38;5116713;27;20058;-63
2023/05/15 03:19:21;;;;;;;0.50;0.50;;;;;;;12.82;95.78;98770.34;5116454;27;20043;-63
2023/05/15 03:21:49;;;;;;;0.50;0.50;;;;;;;12.84;95.76;98768.63;5135100;27;20035;-63
2023/05/15 03:24:18;;;;;;;1.15;0.80;;;;;;;12.79;95.95;98755.91;5134724;27;20130;-62
2023/05/15 03:26:47;;;;;;;0.50;0.50;;;;;;;12.82;95.71;98760.94;5134635;27;20046;-63
2023/05/15 03:29:16;;;;;;;1.65;1.02;;;;;;;12.84;95.92;98774.56;5134678;27;20050;-63
2023/05/15 03:31:46;;;;;;;0.70;0.70;;;;;;;12.84;96.06;98760.94;5134912;27;20484;-63
2023/05/15 03:34:15;;;;;;;0.75;0.75;;;;;;;12.84;95.92;98756.63;5134729;27;20047;-63
2023/05/15 03:36:45;;;;;;;0.90;0.90;;;;;;;12.85;95.84;98760.88;5134410;27;20507;-63
2023/05/15 03:39:14;;;;;;;0.40;0.40;;;;;;;12.84;95.92;98746.38;5134547;27;20078;-63
2023/05/15 03:41:43;;;;;;;0.37;0.37;;;;;;;12.84;95.78;98754.06;5134909;27;20084;-63
2023/05/15 03:44:12;;;;;;;1.00;0.90;;;;;;;12.85;95.88;98748.06;5134563;28;20281;-63
2023/05/15 03:46:40;;;;;;;1.27;1.17;;;;;;;12.77;96.22;98734.63;5116159;28;20035;-63
2023/05/15 03:49:13;;;;;;;1.38;1.15;;;;;;;12.86;95.54;98747.19;5134461;28;20064;-63
2023/05/15 03:51:42;;;;;;;0.82;0.82;;;;;;;12.85;95.81;98748.06;5134518;28;20051;-63
2023/05/15 03:54:11;;;;;;;2.07;1.20;;;;;;;12.85;95.83;98745.53;5134434;28;20085;-63
2023/05/15 03:56:40;;;;;;;4.40;0.80;;;;;;;12.87;96.00;98748.03;5115993;28;20283;-63
2023/05/15 03:59:09;;;;;;;4.57;1.85;;;;;;;12.89;95.94;98747.13;5134699;28;20031;-63
2023/05/15 04:01:38;;;;;;;0.95;0.88;;;;;;;12.75;96.23;98726.13;5134381;28;20070;-63
2023/05/15 04:04:28;;;;;;;0.38;0.38;;;;;;;12.89;95.95;98746.25;5136489;27;20061;-63
2023/05/15 04:06:57;;;;;;;1.02;0.80;;;;;;;12.89;96.12;98739.44;5138759;27;20400;-63
2023/05/15 04:09:26;;;;;;;1.23;1.13;;;;;;;12.91;95.91;98740.22;5138457;27;20088;-63
2023/05/15 04:11:55;;;;;;;1.97;1.77;;;;;;;12.94;96.14;98737.59;5138445;27;20039;-63
2023/05/15 04:14:24;;;;;;;0.73;0.73;;;;;;;12.95;96.19;98739.28;5138629;27;20637;-63
2023/05/15 04:16:53;;;;;;;0.50;0.50;;;;;;;12.91;96.37;98740.22;5138238;27;20047;-63
2023/05/15 04:19:22;;;;;;;2.45;1.15;;;;;;;12.94;96.06;98745.28;5138406;27;20051;-63
2023/05/15 04:21:52;;;;;;;1.35;1.25;;;;;;;12.92;96.05;98752.16;5138158;27;20050;-63
2023/05/15 04:24:21;;;;;;;3.30;2.42;;;;;;;12.89;95.89;98742.00;5138157;27;20519;-63
2023/05/15 04:26:50;;;;;;;4.73;2.93;;;;;;;12.91;96.39;98747.91;5138053;27;20503;-63
2023/05/15 04:29:19;;;;;;;1.93;1.80;;;;;;;12.91;96.04;98742.78;5137932;27;20039;-63
2023/05/15 04:31:47;;;;;;;0.60;0.60;;;;;;;12.91;96.31;98744.53;5137994;27;20167;-63
2023/05/15 04:34:16;;;;;;;3.33;1.65;;;;;;;12.91;96.31;98735.09;5137922;27;20271;-63
2023/05/15 04:36:45;;;;;;;1.00;0.97;;;;;;;12.89;96.15;98742.00;5137889;27;20455;-63
2023/05/15 04:39:15;;;;;;;1.90;1.33;;;;;;;12.89;96.52;98739.44;5138124;27;20050;-63
2023/05/15 04:41:44;;;;;;;1.92;1.73;;;;;;;12.93;96.62;98735.94;5137726;27;20048;-63
2023/05/15 04:44:13;;;;;;;2.10;1.47;;;;;;;12.91;96.25;98740.22;5138099;27;20039;-63
2023/05/15 04:46:42;;;;;;;1.77;1.67;;;;;;;12.92;96.66;98741.91;5137662;27;20036;-63
2023/05/15 04:49:11;;;;;;;1.17;1.08;;;;;;;12.95;96.76;98736.72;5137953;27;20043;-63
2023/05/15 04:51:41;;;;;;;2.08;1.23;;;;;;;12.97;96.57;98736.69;5137613;27;20039;-63
2023/05/15 04:54:09;;;;;;;;;;;;;;;13.00;96.64;98737.47;5138276;27;20054;-64
2023/05/15 04:56:39;;;;;;;0.68;0.68;;;;;;;12.98;96.59;98741.75;5137752;27;20021;-63
2023/05/15 04:59:09;;;;;;;2.17;1.63;;;;;;;12.85;96.79;98719.91;5137988;27;20043;-63
2023/05/15 05:01:38;;;;;;;1.08;0.98;;;;;;;13.01;96.67;98746.81;5137484;27;20043;-64
2023/05/15 05:04:08;;;;;;;2.78;1.15;;;;;;;13.00;96.56;98740.03;5137630;27;20051;-63
2023/05/15 05:06:37;;;;;;;0.73;0.70;;;;;;;13.05;96.55;98743.28;5137257;27;20070;-64
2023/05/15 05:09:06;;;;;;;1.27;1.17;;;;;;;13.06;97.08;98750.13;5137222;27;20035;-64
2023/05/15 05:11:34;;;;;;;0.57;0.57;;;;;;;13.07;96.54;98745.84;5137556;27;20096;-64
2023/05/15 05:14:05;;;;;;;2.33;0.97;;;;;;;13.10;96.80;98746.59;5137196;27;20131;-64
2023/05/15 05:16:34;;;;;;;0.77;0.77;;;;;;;13.13;96.66;98743.97;5136448;27;20351;-63
2023/05/15 05:19:03;;;;;;;0.68;0.68;;;;;;;13.17;96.96;98750.69;5137433;27;20047;-63
2023/05/15 05:21:32;;;;;;;2.70;1.50;;;;;;;13.12;96.85;98744.00;5137412;27;20035;-63
2023/05/15 05:24:01;;;;;;;1.08;0.98;;;;;;;13.17;96.95;98750.69;5137260;27;20313;-64
2023/05/15 05:26:30;;;;;;;0.40;0.40;;;;;;;13.18;96.96;98749.81;5137277;27;20110;-64
2023/05/15 05:28:59;;;;;;;0.52;0.52;;;;;;;13.20;97.09;98753.16;5136904;27;20295;-65
2023/05/15 05:31:29;;;;;;;0.50;0.50;;;;;;;13.18;96.80;98749.81;5137273;27;20039;-63
2023/05/15 05:33:58;;;;;;;3.85;1.73;;;;;;;13.23;97.16;98763.34;5101079;27;20043;-64
2023/05/15 05:36:27;;;;;;;1.17;1.15;;;;;;;13.20;96.70;98758.28;5136806;27;20488;-64
2023/05/15 05:38:56;;;;;;;1.80;1.02;;;;;;;13.22;96.93;98765.97;5136752;27;20059;-64
2023/05/15 05:41:25;;;;;;;1.27;0.97;;;;;;;13.24;97.07;98764.19;5136511;27;20047;-64
2023/05/15 05:43:54;;;;;;;0.63;0.50;;;;;;;13.21;96.86;98765.13;5136556;27;20050;-64
2023/05/15 05:46:23;;;;;;;0.98;0.93;;;;;;;13.20;96.98;98758.28;5136965;27;20112;-64
2023/05/15 05:48:53;;;;;;;0.63;0.57;;;;;;;13.21;96.69;98754.88;5136531;27;20039;-65
2023/05/15 05:51:22;;;;;;;0.75;0.75;;;;;;;13.04;97.08;98741.63;5136922;27;20274;-64
2023/05/15 05:53:51;;;;;;;1.05;1.00;;;;;;;13.20;96.96;98767.69;5136428;27;20493;-64
2023/05/15 05:56:20;;;;;;;0.60;0.60;;;;;;;13.21;97.12;98767.66;5136348;27;20035;-65
2023/05/15 05:58:49;;;;;;;0.98;0.60;;;;;;;13.21;96.89;98765.13;5136304;27;20286;-65
2023/05/15 06:01:18;;;;;;;0.50;0.50;;;;;;;13.20;97.36;98768.53;5136322;27;20031;-64
2023/05/15 06:03:47;;;;;;;1.17;1.07;;;;;;;13.19;97.38;98776.28;5136258;27;20129;-64
2023/05/15 06:06:17;;;;;;;0.77;0.73;;;;;;;13.18;97.49;98775.44;5135733;27;20051;-65
2023/05/15 06:08:46;;;;;;;0.50;0.50;;;;;;;13.18;97.19;98783.13;5136142;27;20043;-64
2023/05/15 06:11:15;;;;;;;0.50;0.50;;;;;;;13.17;97.29;98778.84;5136226;27;20049;-65
2023/05/15 06:13:43;;;;;;;6.37;0.73;;;;;;;13.21;97.62;98779.63;5135975;27;20036;-64
2023/05/15 06:16:12;;;;;;;0.43;0.43;;;;;;;13.23;97.84;98778.72;5135962;27;20045;-65
2023/05/15 06:18:41;;;;;;;0.87;0.70;;;;;;;13.26;97.94;98773.53;5135521;27;20127;-65
2023/05/15 06:21:09;;;;;;;1.40;0.93;;;;;;;13.26;97.66;98770.97;5136065;27;20039;-64
2023/05/15 06:23:40;;;;;;;0.85;0.75;;;;;;;13.28;97.56;98771.75;5135704;27;20043;-64
2023/05/15 06:26:08;;;;;;;0.68;0.63;;;;;;;13.29;97.91;98768.28;5135855;27;20104;-64
2023/05/15 06:28:37;;;;;;;0.70;0.60;;;;;;;13.31;97.92;98771.69;5135270;27;20039;-64
2023/05/15 06:31:06;;;;;;;0.82;0.82;;;;;;;13.32;97.73;98773.34;5135902;27;20446;-64
2023/05/15 06:33:34;;;;;;;0.70;0.70;;;;;;;13.33;97.79;98769.06;5135542;27;20039;-64
2023/05/15 06:36:03;;;;;;;0.73;0.73;;;;;;;13.34;97.90;98769.00;5135516;27;20037;-64
2023/05/15 06:38:32;;;;;;;0.70;0.65;;;;;;;13.36;98.08;98769.81;5134696;27;20062;-64
2023/05/15 06:41:02;;;;;;;0.43;0.43;;;;;;;13.38;98.33;98773.19;5135689;27;20042;-63
2023/05/15 06:43:31;;;;;;;0.95;0.95;;;;;;;13.43;98.39;98771.34;5135754;27;20039;-64
2023/05/15 06:46:00;;;;;;;0.60;0.60;;;;;;;13.47;98.42;98766.97;5135296;27;20039;-64
2023/05/15 06:48:29;;;;;;;1.50;1.23;;;;;;;13.48;98.59;98770.38;5135298;27;20122;-63
2023/05/15 06:50:58;;;;;;;0.70;0.70;;;;;;;13.42;98.73;98779.91;5135295;27;20047;-64
2023/05/15 06:53:27;;;;;;;1.88;0.82;;;;;;;13.38;98.46;98777.47;5135468;27;20067;-63
2023/05/15 06:55:55;;;;;;;0.47;0.47;;;;;;;13.39;98.46;98774.88;5135205;27;20050;-64
2023/05/15 06:58:26;;;;;;;0.40;0.40;;;;;;;13.39;98.53;98774.88;5135478;27;20039;-63
2023/05/15 07:00:55;;;;;;;0.75;0.75;;;;;;;13.38;98.77;98783.44;5135174;27;20047;-63
2023/05/15 07:03:25;;;;;;;1.30;1.10;;;;;;;13.34;99.06;98781.84;5135037;27;20227;-63
2023/05/15 07:05:56;;;;;;;2.13;0.95;;;;;;;13.42;98.76;98789.31;5134235;27;20043;-62
2023/05/15 07:08:25;;;;;;;1.20;1.10;;;;;;;13.42;99.11;98789.31;5132379;27;20038;-63
2023/05/15 07:10:54;;;;;;;1.20;1.10;;;;;;;13.38;99.06;98790.28;5132731;27;20676;-63
2023/05/15 07:13:23;;;;;;;1.38;1.23;;;;;;;13.38;99.27;98793.69;5132201;27;20359;-63
2023/05/15 07:15:53;;;;;;;3.08;1.48;;;;;;;13.41;99.35;98793.59;5134476;27;20043;-63
2023/05/15 07:18:22;;;;;;;3.42;1.38;;;;;;;13.44;99.38;98790.97;5134899;27;20047;-64
2023/05/15 07:20:51;;;;;;;0.73;0.73;;;;;;;13.49;99.53;98788.28;5134898;27;20047;-63
2023/05/15 07:23:19;;;;;;;1.90;1.40;;;;;;;13.56;99.76;98792.34;5135066;27;20511;-63
2023/05/15 07:25:48;;;;;;;1.95;1.25;;;;;;;13.57;99.44;98798.31;5134939;27;20103;-63
2023/05/15 07:28:17;;;;;;;2.15;1.33;;;;;;;13.57;99.85;98804.31;5134675;27;20041;-63
2023/05/15 07:30:46;;;;;;;1.40;1.00;;;;;;;13.62;99.86;98805.03;5134892;27;20592;-63
2023/05/15 07:33:16;;;;;;;1.27;1.17;;;;;;;13.63;99.57;98799.00;5134554;27;20282;-63
2023/05/15 07:35:45;;;;;;;1.30;1.20;;;;;;;13.64;99.81;98799.84;5134667;27;20489;-63
2023/05/15 07:38:14;;;;;;;2.53;1.80;;;;;;;13.66;99.68;98792.94;5134061;27;20055;-63
2023/05/15 07:40:43;;;;;;;2.65;1.35;;;;;;;13.77;100.00;98796.88;5134494;27;20031;-63
2023/05/15 07:43:12;;;;;;;2.73;2.27;;;;;;;13.83;100.00;98795.88;5134420;27;20103;-64
2023/05/15 07:45:41;;;;;;;1.23;1.13;;;;;;;13.94;99.62;98799.00;5134742;28;20366;-63
2023/05/15 07:48:14;;;;;;;0.73;0.73;;;;;;;14.01;99.77;98803.09;5134411;28;20096;-63
2023/05/15 07:50:46;;;;;;;0.75;0.75;;;;;;;14.07;99.77;98800.31;5134059;28;20084;-63
2023/05/15 07:53:15;;;;;;;1.05;0.93;;;;;;;14.03;99.39;98801.31;5134005;28;20039;-64
2023/05/15 07:55:44;;;;;;;0.70;0.70;;;;;;;13.97;99.02;98804.03;5133913;28;20493;-63
2023/05/15 07:58:13;;;;;;;0.63;0.60;;;;;;;13.91;99.37;98810.19;5134367;28;20541;-63
2023/05/15 08:00:42;;;;;;;1.65;1.35;;;;;;;13.86;99.12;98821.47;5134065;28;20047;-62
2023/05/15 08:03:11;;;;;;;0.65;0.65;;;;;;;13.74;98.56;98819.22;5133804;28;20070;-63
2023/05/15 08:05:40;;;;;;;0.63;0.63;;;;;;;13.75;98.50;98824.31;5134284;28;20043;-63
2023/05/15 08:08:10;;;;;;;0.70;0.70;;;;;;;13.81;98.49;98828.44;5134186;28;20036;-62
2023/05/15 08:10:39;;;;;;;0.75;0.75;;;;;;;13.86;98.44;98831.72;5134199;28;20075;-62
2023/05/15 08:13:08;;;;;;;1.27;0.88;;;;;;;13.93;98.30;98831.50;5134474;28;20427;-62
2023/05/15 08:15:37;;;;;;;0.73;0.73;;;;;;;14.04;97.74;98836.31;5134112;28;20035;-62
2023/05/15 08:18:09;;;;;;;1.25;1.15;;;;;;;14.24;97.86;98834.03;5135058;28;20045;-62
2023/05/15 08:20:38;;;;;;;0.75;0.75;;;;;;;14.33;97.34;98832.94;5133482;28;20544;-62
2023/05/15 08:23:07;;;;;;;0.95;0.95;;;;;;;14.43;97.22;98824.94;5133768;28;20070;-63
2023/05/15 08:25:37;;;;;;;1.48;1.38;;;;;;;14.60;96.49;98822.72;5133828;28;20048;-63
2023/05/15 08:28:06;;;;;;;0.32;0.32;;;;;;;14.62;96.02;98825.22;5133601;28;20047;-63
2023/05/15 08:30:35;;;;;;;0.50;0.50;;;;;;;14.63;95.52;98827.75;5134155;28;20039;-62
2023/05/15 08:33:04;;;;;;;2.67;1.93;;;;;;;14.62;95.15;98827.78;5134355;28;20039;-62
2023/05/15 08:35:33;;;;;;;1.05;1.00;;;;;;;14.44;94.80;98830.94;5134221;28;20032;-63
2023/05/15 08:38:02;;;;;;;0.90;0.70;;;;;;;14.37;94.86;98832.81;5134012;28;20119;-63
2023/05/15 08:40:31;;;;;;;1.35;1.23;;;;;;;14.26;94.12;98819.44;5114711;28;20047;-63
2023/05/15 08:43:14;;;;;;;1.65;1.17;;;;;;;14.29;94.58;98832.19;5133707;28;20489;-62
2023/05/15 08:45:43;;;;;;;0.85;0.85;;;;;;;14.24;94.35;98836.59;5127707;28;20047;-62
2023/05/15 08:48:16;;;;;;;2.13;0.98;;;;;;;14.20;93.77;98847.84;5113563;28;20501;-62
2023/05/15 08:50:46;;;;;;;0.70;0.65;;;;;;;14.17;94.00;98847.94;5118135;27;20050;-64
2023/05/15 08:53:16;;;;;;;1.23;1.13;;;;;;;14.14;93.73;98853.16;5136311;27;20493;-62
2023/05/15 08:55:44;;;;;;;1.20;1.10;;;;;;;14.16;93.72;98856.50;5136310;27;20125;-62
2023/05/15 08:58:16;;;;;;;1.77;1.67;;;;;;;14.16;93.80;98859.06;5135954;27;20121;-62
2023/05/15 09:00:46;;;;;;;0.85;0.85;;;;;;;14.16;93.48;98856.50;5135602;27;20047;-62
2023/05/15 09:03:17;;;;;;;0.93;0.70;;;;;;;14.15;93.88;98859.97;5136627;27;20035;-62
2023/05/15 09:05:48;;;;;;;1.05;0.95;;;;;;;14.16;93.86;98853.94;5135792;27;20489;-62
2023/05/15 09:08:18;;;;;;;1.42;1.33;;;;;;;14.26;93.38;98852.81;5135166;27;20047;-62
2023/05/15 09:10:48;;;;;;;1.42;1.25;;;;;;;14.36;93.47;98848.28;5136028;27;20392;-62
2023/05/15 09:13:18;;;;;;;1.17;1.08;;;;;;;14.46;93.58;98862.53;5136236;27;20044;-62
2023/05/15 09:15:48;;;;;;;1.23;0.82;;;;;;;14.55;93.09;98864.81;5136394;27;20047;-62
2023/05/15 09:18:17;;;;;;;3.80;1.92;;;;;;;14.64;92.74;98860.25;5136386;27;20434;-62
2023/05/15 09:20:45;;;;;;;2.25;1.88;;;;;;;14.79;92.95;98853.81;5136168;27;20834;-62
2023/05/15 09:23:26;;;;;;;1.88;1.77;;;;;;;14.94;92.70;98843.06;5135483;27;20146;-63
2023/05/15 09:25:55;;;;;;;1.83;1.70;;;;;;;15.04;92.91;98844.44;5135976;27;20043;-62
2023/05/15 09:28:30;;;;;;;2.42;1.92;;;;;;;15.08;92.05;98850.31;5136357;27;20042;-62
2023/05/15 09:31:02;;;;;;;1.83;1.73;;;;;;;15.02;92.17;98850.53;5135525;27;20051;-62
2023/05/15 09:33:33;;;;;;;1.33;1.23;;;;;;;14.93;91.47;98855.94;5135704;27;20047;-62
2023/05/15 09:36:03;;;;;;;1.90;1.80;;;;;;;14.96;91.54;98858.41;5117343;27;20145;-62
2023/05/15 09:38:33;;;;;;;1.80;1.42;;;;;;;14.98;91.46;98856.63;5135140;27;20040;-62
2023/05/15 09:41:03;;;;;;;2.92;2.10;;;;;;;14.99;90.83;98850.63;5135583;27;20134;-63
2023/05/15 09:43:37;;;;;;;2.47;1.55;;;;;;;15.01;90.93;98853.97;5135112;27;20074;-61
2023/05/15 09:46:10;;;;;;;2.95;1.50;;;;;;;15.13;90.60;98863.84;5135554;27;20069;-62
2023/05/15 09:48:40;;;;;;;1.48;1.38;;;;;;;15.21;90.55;98861.88;5135266;27;20115;-62
2023/05/15 09:51:15;;;;;;;3.47;1.83;;;;;;;15.27;90.04;98865.09;5135078;27;20100;-62
2023/05/15 09:53:49;;;;;;;1.10;1.00;;;;;;;15.22;89.17;98871.25;5135479;27;20279;-62
2023/05/15 09:56:18;;;;;;;1.25;1.15;;;;;;;15.22;89.14;98871.25;5135013;27;20112;-63
2023/05/15 09:58:55;;;;;;;1.73;1.50;;;;;;;15.19;88.93;98864.50;5134961;27;20047;-63
2023/05/15 10:01:25;;;;;;;1.08;0.98;;;;;;;15.23;88.86;98867.81;5135114;27;20092;-62
2023/05/15 10:03:59;;;;;;;0.75;0.55;;;;;;;15.30;88.67;98871.88;5134925;27;20066;-62
2023/05/15 10:06:35;;;;;;;0.50;0.50;;;;;;;15.45;87.87;98878.28;5135825;27;20126;-62
2023/05/15 10:09:04;;;;;;;0.60;0.60;;;;;;;15.67;87.75;98886.97;5135740;27;20049;-62
2023/05/15 10:11:34;;;;;;;;;;;;;;;15.87;86.80;98879.38;5135745;27;20043;-62
2023/05/15 10:14:05;;;;;;;;;;;;;;;16.30;86.21;98865.81;5135734;27;19919;-62
2023/05/15 10:16:35;;;;;;;0.85;0.70;;;;;;;16.50;85.37;98860.75;5135202;27;19919;-63
2023/05/15 10:19:05;;;;;;;0.40;0.40;;;;;;;16.71;84.23;98859.97;5135153;27;20060;-63
2023/05/15 10:21:36;;;;;;;0.82;0.82;;;;;;;16.95;83.04;98856.44;5135427;27;20043;-63
2023/05/15 10:24:06;;;;;;;0.50;0.50;;;;;;;17.15;81.99;98856.50;5134495;27;20127;-62
2023/05/15 10:26:38;;;;;;;0.55;0.55;;;;;;;17.00;80.63;98857.09;5135516;27;20039;-62
2023/05/15 10:29:10;;;;;;;0.70;0.50;;;;;;;16.84;79.77;98861.19;5135890;27;20442;-63
2023/05/15 10:31:40;;;;;;;0.57;0.57;;;;;;;16.64;79.22;98849.06;5135692;27;20443;-63
2023/05/15 10:34:09;;;;;;;;;;;;;;;16.48;79.17;98847.09;5135648;27;20027;-63
2023/05/15 10:36:38;;;;;;;0.65;0.63;;;;;;;16.41;79.59;98845.66;5135702;27;19941;-64
2023/05/15 10:39:08;;;;;;;0.63;0.63;;;;;;;16.40;80.31;98846.53;5122061;27;20383;-63
2023/05/15 10:41:40;;;;;;;6.13;0.85;;;;;;;16.50;80.77;98848.72;5115294;28;20485;-62
2023/05/15 10:44:16;;;;;;;0.70;0.70;;;;;;;16.62;80.60;98852.59;5115087;28;20512;-63
2023/05/15 10:46:45;;;;;;;0.40;0.40;;;;;;;16.86;80.26;98861.09;5114800;28;20043;-62
2023/05/15 10:49:13;;;;;;;0.50;0.50;;;;;;;17.17;79.84;98848.69;5114037;28;20048;-63
2023/05/15 10:51:42;;;;;;;0.57;0.50;;;;;;;17.23;79.18;98851.84;5114600;28;20070;-62
2023/05/15 10:54:11;;;;;;;0.63;0.63;;;;;;;17.16;78.35;98850.41;5129526;27;20057;-63
2023/05/15 10:56:42;;;;;;;0.40;0.40;;;;;;;17.07;77.81;98848.22;5135149;27;20131;-62
2023/05/15 10:59:12;;;;;;;0.70;0.70;;;;;;;16.93;77.21;98854.81;5135464;27;20682;-62
2023/05/15 11:01:41;;;;;;;0.50;0.50;;;;;;;17.00;77.08;98851.94;5135380;27;20047;-62
2023/05/15 11:04:12;;;;;;;1.67;0.93;;;;;;;17.30;76.62;98850.69;5135042;27;20177;-63
2023/05/15 11:06:44;;;;;;;0.40;0.40;;;;;;;17.54;76.28;98846.28;5135705;27;20047;-63
2023/05/15 11:09:35;;;;;;;0.77;0.65;;;;;;;17.59;75.62;98848.69;5135291;27;20054;-63
2023/05/15 11:12:05;;;;;;;0.95;0.50;;;;;;;17.50;74.92;98851.59;5135015;27;20047;-62
2023/05/15 11:14:38;;;;;;;0.40;0.40;;;;;;;17.31;74.52;98848.94;5134378;27;20051;-64
2023/05/15 11:17:09;;;;;;;0.50;0.50;;;;;;;17.23;74.34;98846.69;5135001;27;20047;-63
2023/05/15 11:19:54;;;;;;;0.57;0.50;;;;;;;17.27;74.49;98845.69;5134812;27;20047;-63
2023/05/15 11:22:27;;;;;;;0.90;0.88;;;;;;;17.25;75.16;98847.44;5134620;27;20050;-63
2023/05/15 11:25:00;;;;;;;0.52;0.52;;;;;;;17.22;75.13;98847.59;5134759;27;20041;-63
2023/05/15 11:27:31;;;;;;;0.70;0.70;;;;;;;17.11;75.56;98838.59;5134782;27;20110;-63
2023/05/15 11:30:10;;;;;;;0.60;0.60;;;;;;;16.85;76.00;98828.50;5135054;27;20118;-62
2023/05/15 11:32:44;;;;;;;1.42;0.93;;;;;;;16.73;76.69;98829.81;5135203;27;20035;-63
2023/05/15 11:35:20;;;;;;;0.85;0.85;;;;;;;16.66;76.84;98836.09;5134867;27;20042;-62
2023/05/15 11:37:52;;;;;;;0.50;0.50;;;;;;;16.64;77.21;98843.06;5134495;27;20072;-62
2023/05/15 11:40:24;;;;;;;0.50;0.50;;;;;;;16.61;77.63;98848.31;5134759;27;20428;-62
2023/05/15 11:43:07;;;;;;;0.52;0.52;;;;;;;16.65;77.82;98852.50;5134799;27;20389;-63
2023/05/15 11:45:40;;;;;;;0.50;0.50;;;;;;;16.69;77.30;98851.47;5134396;27;20043;-62
2023/05/15 11:48:15;;;;;;;0.50;0.50;;;;;;;16.84;76.99;98860.34;5134421;28;20054;-63
2023/05/15 11:50:45;;;;;;;0.50;0.50;;;;;;;17.10;76.55;98850.66;5134798;28;20047;-63